Time;durP1;ratioP1;P1;durP2;ratioP2;P2;SDS_P1;SDS_P2;PMS_P1;PMS_P2;Temp;Humidity;BMP_temperature;BMP_pressure;BME280_temperature;BME280_humidity;BME280_pressure;Samples;Min_cycle;Max_cycle;Signal;HPM_P1;HPM_P2
2022/08/29 00:00:16;;;;;;;11.73;11.13;;;14.70;99.90;;;;;;5079879;28;20831;-67
2022/08/29 00:02:43;;;;;;;11.23;10.63;;;14.70;99.90;;;;;;5085811;28;20468;-68
2022/08/29 00:05:11;;;;;;;11.63;10.83;;;14.60;99.90;;;;;;5083963;28;20457;-66
2022/08/29 00:07:38;;;;;;;11.57;10.83;;;14.60;99.90;;;;;;5080777;28;20462;-67
2022/08/29 00:10:06;;;;;;;11.90;11.10;;;14.60;99.90;;;;;;5082018;28;20494;-67
2022/08/29 00:12:33;;;;;;;11.40;10.80;;;14.60;99.90;;;;;;5084861;28;20885;-67
2022/08/29 00:15:01;;;;;;;12.00;11.20;;;14.60;99.90;;;;;;5076394;28;20463;-67
2022/08/29 00:17:29;;;;;;;11.90;11.20;;;14.60;99.90;;;;;;5082769;28;20568;-67
2022/08/29 00:19:56;;;;;;;12.30;11.57;;;14.60;99.90;;;;;;5081439;28;20454;-67
2022/08/29 00:22:24;;;;;;;11.63;10.93;;;14.60;99.90;;;;;;5083483;28;20454;-67
2022/08/29 00:24:50;;;;;;;11.53;10.90;;;14.60;99.90;;;;;;5079316;28;20470;-66
2022/08/29 00:27:18;;;;;;;12.53;11.53;;;14.60;99.90;;;;;;5076323;28;20475;-67
2022/08/29 00:29:45;;;;;;;12.73;11.93;;;14.60;99.90;;;;;;5083196;28;20502;-67
2022/08/29 00:32:13;;;;;;;11.53;10.93;;;14.60;99.90;;;;;;5079324;28;20562;-67
2022/08/29 00:34:40;;;;;;;11.63;10.60;;;14.60;99.90;;;;;;5080077;28;20458;-67
2022/08/29 00:37:07;;;;;;;11.90;11.20;;;14.50;99.90;;;;;;5082063;28;20941;-67
2022/08/29 00:39:34;;;;;;;13.47;12.30;;;14.40;99.90;;;;;;5079393;28;20466;-67
2022/08/29 00:42:01;;;;;;;12.13;11.33;;;14.50;99.90;;;;;;5083886;28;20979;-67
2022/08/29 00:44:28;;;;;;;11.73;11.00;;;14.50;99.90;;;;;;5087726;28;20466;-67
2022/08/29 00:46:58;;;;;;;12.77;11.83;;;14.50;99.90;;;;;;5076048;28;20462;-67
2022/08/29 00:49:31;;;;;;;12.53;11.63;;;14.40;99.90;;;;;;5076238;28;20494;-67
2022/08/29 00:51:59;;;;;;;11.00;10.40;;;14.30;99.90;;;;;;5076664;28;20459;-68
2022/08/29 00:54:27;;;;;;;11.53;10.90;;;14.20;99.90;;;;;;5083295;28;20463;-67
2022/08/29 00:56:56;;;;;;;12.53;11.40;;;14.10;99.90;;;;;;5083061;28;20539;-67
2022/08/29 00:59:26;;;;;;;11.93;11.20;;;14.10;99.90;;;;;;5076929;28;20478;-67
2022/08/29 01:01:55;;;;;;;11.33;10.57;;;13.90;99.90;;;;;;5078275;28;20462;-68
2022/08/29 01:04:23;;;;;;;12.80;11.80;;;13.80;99.90;;;;;;5082079;28;20466;-67
2022/08/29 01:06:52;;;;;;;11.37;10.67;;;13.70;99.90;;;;;;5078970;28;20473;-67
2022/08/29 01:09:20;;;;;;;11.83;10.83;;;13.60;99.90;;;;;;5075402;28;20498;-67
2022/08/29 01:14:32;;;;;;;11.93;11.33;;;13.40;99.90;;;;;;5076085;28;20462;-67
2022/08/29 01:17:00;;;;;;;12.03;10.73;;;13.30;99.90;;;;;;5080170;28;20580;-67
2022/08/29 01:19:39;;;;;;;11.60;10.70;;;13.20;99.90;;;;;;5079909;28;20463;-67
2022/08/29 01:22:20;;;;;;;11.40;10.47;;;13.10;99.90;;;;;;5073183;28;20550;-68
2022/08/29 01:24:50;;;;;;;12.50;11.40;;;12.90;99.90;;;;;;5080007;28;20463;-67
2022/08/29 01:27:21;;;;;;;11.60;10.73;;;12.80;99.90;;;;;;5079262;28;20485;-67
2022/08/29 01:29:48;;;;;;;11.30;10.57;;;12.60;99.90;;;;;;5082082;28;20486;-66
2022/08/29 01:32:17;;;;;;;11.47;10.50;;;12.50;99.90;;;;;;5076043;28;20458;-67
2022/08/29 01:34:44;;;;;;;11.37;10.67;;;12.30;99.90;;;;;;5081360;28;20827;-67
2022/08/29 01:37:16;;;;;;;12.00;10.97;;;12.20;99.90;;;;;;5076817;28;20517;-67
2022/08/29 01:39:44;;;;;;;11.67;10.83;;;12.20;99.90;;;;;;5078846;28;20466;-67
2022/08/29 01:42:16;;;;;;;11.20;10.50;;;12.10;99.90;;;;;;5078556;28;20463;-67
2022/08/29 01:44:48;;;;;;;14.67;10.80;;;12.10;99.90;;;;;;5075504;28;20470;-66
2022/08/29 01:47:16;;;;;;;11.73;10.60;;;12.00;99.90;;;;;;5082123;28;20459;-68
2022/08/29 01:49:44;;;;;;;11.70;10.90;;;11.90;99.90;;;;;;5077626;28;20497;-66
2022/08/29 01:52:12;;;;;;;12.30;11.20;;;11.90;99.90;;;;;;5082904;28;20477;-67
2022/08/29 01:54:41;;;;;;;11.50;10.70;;;11.80;99.90;;;;;;5084590;28;20476;-69
2022/08/29 01:57:09;;;;;;;11.73;11.03;;;11.70;99.90;;;;;;5078723;28;20493;-68
2022/08/29 01:59:38;;;;;;;11.70;10.90;;;11.60;99.90;;;;;;5079027;28;20486;-67
2022/08/29 02:02:09;;;;;;;12.87;11.87;;;11.50;99.90;;;;;;5075619;28;20470;-67
2022/08/29 02:04:39;;;;;;;11.60;10.73;;;11.50;99.90;;;;;;5073787;28;20458;-68
2022/08/29 02:07:06;;;;;;;11.73;10.83;;;11.50;99.90;;;;;;5080594;28;20454;-68
2022/08/29 02:09:33;;;;;;;13.00;10.67;;;11.40;99.90;;;;;;5079022;28;20497;-68
2022/08/29 02:12:06;;;;;;;12.50;11.40;;;11.40;99.90;;;;;;5079391;28;20968;-67
2022/08/29 02:14:33;;;;;;;11.73;11.03;;;11.30;99.90;;;;;;5081771;28;20462;-67
2022/08/29 02:17:03;;;;;;;11.50;10.90;;;11.20;99.90;;;;;;5085218;28;20841;-69
2022/08/29 02:19:31;;;;;;;12.17;10.87;;;11.10;99.90;;;;;;5083706;28;21116;-67
2022/08/29 02:21:58;;;;;;;12.23;11.33;;;11.00;99.90;;;;;;5071806;28;20543;-67
2022/08/29 02:24:25;;;;;;;13.13;12.03;;;11.00;99.90;;;;;;5079086;28;20864;-67
2022/08/29 02:26:55;;;;;;;11.60;10.80;;;11.00;99.90;;;;;;5077654;28;20485;-67
2022/08/29 02:29:22;;;;;;;11.63;10.93;;;11.00;99.90;;;;;;5081428;28;20486;-68
2022/08/29 02:31:50;;;;;;;12.40;11.40;;;11.00;99.90;;;;;;5074680;28;20474;-67
2022/08/29 02:34:19;;;;;;;11.90;11.00;;;10.90;99.90;;;;;;5080369;28;20968;-67
2022/08/29 02:36:46;;;;;;;11.43;10.53;;;10.90;99.90;;;;;;5085163;28;20462;-68
2022/08/29 02:39:14;;;;;;;18.57;11.00;;;10.90;99.90;;;;;;5081626;28;20462;-68
2022/08/29 02:41:40;;;;;;;11.83;10.90;;;10.90;99.90;;;;;;5077530;28;20473;-67
2022/08/29 02:44:07;;;;;;;11.47;10.70;;;10.90;99.90;;;;;;5081533;28;20465;-67
2022/08/29 02:46:34;;;;;;;11.40;10.40;;;10.90;99.90;;;;;;5084888;28;20473;-68
2022/08/29 02:49:01;;;;;;;11.00;10.30;;;11.00;99.90;;;;;;5077964;28;20459;-68
2022/08/29 02:51:31;;;;;;;9.93;9.40;;;11.10;99.90;;;;;;5082453;28;20977;-68
2022/08/29 02:53:59;;;;;;;10.97;10.17;;;11.10;99.90;;;;;;5081531;28;20469;-68
2022/08/29 02:56:27;;;;;;;10.70;9.70;;;11.00;99.90;;;;;;5082245;28;20462;-67
2022/08/29 02:58:54;;;;;;;9.73;8.83;;;11.10;99.90;;;;;;5081059;28;20469;-67
2022/08/29 03:01:22;;;;;;;9.80;9.13;;;11.10;99.90;;;;;;5080036;28;20463;-69
2022/08/29 03:03:51;;;;;;;9.47;8.67;;;11.10;99.90;;;;;;5077964;28;20462;-69
2022/08/29 03:06:18;;;;;;;9.77;9.13;;;11.20;99.90;;;;;;5080091;28;20463;-68
2022/08/29 03:08:49;;;;;;;9.33;8.73;;;11.20;99.90;;;;;;5075036;28;20711;-67
2022/08/29 03:11:18;;;;;;;9.30;8.67;;;11.10;99.90;;;;;;5081714;28;20486;-67
2022/08/29 03:13:47;;;;;;;9.30;8.60;;;11.10;99.90;;;;;;5082208;28;20717;-68
2022/08/29 03:16:14;;;;;;;10.00;9.17;;;11.10;99.90;;;;;;5082630;28;20497;-69
2022/08/29 03:18:43;;;;;;;10.03;9.00;;;11.10;99.90;;;;;;5081197;28;20953;-68
2022/08/29 03:21:16;;;;;;;11.50;8.80;;;11.10;99.90;;;;;;5084057;28;20553;-68
2022/08/29 03:23:43;;;;;;;9.80;8.90;;;11.10;99.90;;;;;;5084801;28;20610;-69
2022/08/29 03:26:12;;;;;;;10.97;10.10;;;11.10;99.90;;;;;;5076999;28;20467;-68
2022/08/29 03:28:39;;;;;;;10.43;9.73;;;11.10;99.90;;;;;;5084505;28;20455;-69
2022/08/29 03:31:06;;;;;;;11.17;10.27;;;11.10;99.90;;;;;;5080435;28;21142;-68
2022/08/29 03:33:33;;;;;;;10.77;10.07;;;11.10;99.90;;;;;;5079756;28;20468;-69
2022/08/29 03:36:01;;;;;;;15.67;10.80;;;11.10;99.90;;;;;;5080097;28;20454;-68
2022/08/29 03:38:28;;;;;;;13.27;11.10;;;11.10;99.90;;;;;;5078043;28;20458;-69
2022/08/29 03:40:55;;;;;;;11.17;10.37;;;11.10;99.90;;;;;;5084186;28;20523;-68
2022/08/29 03:43:24;;;;;;;12.40;11.40;;;11.00;99.90;;;;;;5085856;28;20457;-67
2022/08/29 03:45:51;;;;;;;12.30;11.20;;;11.00;99.90;;;;;;5078711;28;20463;-68
2022/08/29 03:48:18;;;;;;;11.87;11.17;;;10.90;99.90;;;;;;5082050;28;21057;-68
2022/08/29 03:50:44;;;;;;;13.20;12.10;;;10.80;99.90;;;;;;5078774;28;20496;-69
2022/08/29 03:53:12;;;;;;;12.07;11.17;;;10.80;99.90;;;;;;5080599;28;20996;-68
2022/08/29 03:55:39;;;;;;;12.10;11.20;;;10.70;99.90;;;;;;5099582;28;20465;-68
2022/08/29 03:58:06;;;;;;;13.80;12.90;;;10.70;99.90;;;;;;5081893;28;20486;-69
2022/08/29 04:00:34;;;;;;;12.80;12.10;;;10.60;99.90;;;;;;5078001;28;20450;-69
2022/08/29 04:03:01;;;;;;;13.73;12.87;;;10.60;99.90;;;;;;5063689;28;20463;-68
2022/08/29 04:05:28;;;;;;;14.13;13.10;;;10.60;99.90;;;;;;5048217;28;20466;-68
2022/08/29 04:07:56;;;;;;;14.40;13.30;;;10.60;99.90;;;;;;5048875;28;21170;-68
2022/08/29 04:10:25;;;;;;;15.23;13.93;;;10.60;99.90;;;;;;5048963;28;20487;-68
2022/08/29 04:12:52;;;;;;;14.77;13.63;;;10.60;99.90;;;;;;5049952;28;20470;-69
2022/08/29 04:15:19;;;;;;;13.83;12.70;;;10.60;99.90;;;;;;5051056;28;21182;-69
2022/08/29 04:17:47;;;;;;;14.60;13.17;;;10.50;99.90;;;;;;5051636;28;20470;-69
2022/08/29 04:20:15;;;;;;;14.33;13.00;;;10.60;99.90;;;;;;5050488;28;20466;-69
2022/08/29 04:22:43;;;;;;;14.30;13.27;;;10.50;99.90;;;;;;5050908;28;20475;-68
2022/08/29 04:25:13;;;;;;;15.03;13.83;;;10.50;99.90;;;;;;5051876;28;20480;-68
2022/08/29 04:27:40;;;;;;;14.30;13.30;;;10.50;99.90;;;;;;5049869;28;20467;-69
2022/08/29 04:30:10;;;;;;;13.33;12.43;;;10.40;99.90;;;;;;5049729;28;20506;-68
2022/08/29 04:32:37;;;;;;;15.00;14.00;;;10.40;99.90;;;;;;5050029;28;21009;-69
2022/08/29 04:35:07;;;;;;;15.50;14.03;;;10.30;99.90;;;;;;5050113;28;21065;-67
2022/08/29 04:37:34;;;;;;;15.10;14.00;;;10.30;99.90;;;;;;5050222;28;20458;-69
2022/08/29 04:40:01;;;;;;;14.70;13.80;;;10.30;99.90;;;;;;5050222;28;20459;-68
2022/08/29 04:42:29;;;;;;;15.33;13.77;;;10.40;99.90;;;;;;5049102;28;20451;-68
2022/08/29 04:44:57;;;;;;;14.17;13.00;;;10.40;99.90;;;;;;5048998;28;20474;-69
2022/08/29 04:47:24;;;;;;;14.10;13.00;;;10.40;99.90;;;;;;5050350;28;20817;-68
2022/08/29 04:49:55;;;;;;;14.97;13.60;;;10.30;99.90;;;;;;5049745;28;20470;-69
2022/08/29 04:52:24;;;;;;;16.20;14.40;;;10.30;99.90;;;;;;5049926;28;20463;-69
2022/08/29 04:54:51;;;;;;;16.10;13.77;;;10.40;99.90;;;;;;5050053;28;20458;-69
2022/08/29 04:57:17;;;;;;;14.50;13.13;;;10.50;99.90;;;;;;5048507;28;20479;-68
2022/08/29 04:59:46;;;;;;;15.60;14.40;;;10.50;99.90;;;;;;5078792;28;20446;-68
2022/08/29 05:02:13;;;;;;;14.80;13.70;;;10.50;99.90;;;;;;5077203;28;20888;-69
2022/08/29 05:04:40;;;;;;;15.30;14.10;;;10.60;99.90;;;;;;5076879;28;20549;-69
2022/08/29 05:07:07;;;;;;;14.50;13.60;;;10.60;99.90;;;;;;5081462;28;20570;-69
2022/08/29 05:09:36;;;;;;;15.60;14.50;;;10.50;99.90;;;;;;5054189;28;20554;-69
2022/08/29 05:12:03;;;;;;;15.53;14.27;;;10.60;99.90;;;;;;5047068;28;21107;-67
2022/08/29 05:14:30;;;;;;;16.43;14.83;;;10.60;99.90;;;;;;5048230;28;20455;-68
2022/08/29 05:16:57;;;;;;;14.90;13.43;;;10.60;99.90;;;;;;5048085;28;20494;-69
2022/08/29 05:19:23;;;;;;;15.93;12.97;;;10.70;99.90;;;;;;5048659;28;22380;-69
2022/08/29 05:21:56;;;;;;;35.73;13.97;;;10.70;99.90;;;;;;5048700;28;20455;-68
2022/08/29 05:24:23;;;;;;;15.73;13.90;;;10.70;99.90;;;;;;5049161;28;20453;-69
2022/08/29 05:26:51;;;;;;;15.07;14.00;;;10.70;99.90;;;;;;5049154;28;20553;-68
2022/08/29 05:29:19;;;;;;;14.10;13.17;;;10.70;99.90;;;;;;5047697;28;20842;-69
2022/08/29 05:31:47;;;;;;;14.27;13.13;;;10.80;99.90;;;;;;5049239;28;20490;-68
2022/08/29 05:34:14;;;;;;;15.77;13.87;;;10.80;99.90;;;;;;5048760;28;20494;-69
2022/08/29 05:36:40;;;;;;;14.60;13.70;;;10.90;99.90;;;;;;5049185;28;20455;-67
2022/08/29 05:39:07;;;;;;;14.20;13.40;;;11.00;99.90;;;;;;5049138;28;20470;-68
2022/08/29 05:41:34;;;;;;;14.20;12.97;;;11.10;99.90;;;;;;5048675;28;20467;-68
2022/08/29 05:44:03;;;;;;;13.73;12.70;;;11.10;99.90;;;;;;5047730;28;20461;-69
2022/08/29 05:46:30;;;;;;;13.83;12.93;;;11.20;99.90;;;;;;5048591;28;21005;-69
2022/08/29 05:48:57;;;;;;;15.23;13.70;;;11.30;99.90;;;;;;5048566;28;20542;-68
2022/08/29 05:51:24;;;;;;;14.40;12.77;;;11.40;99.90;;;;;;5048586;28;21471;-68
2022/08/29 05:53:51;;;;;;;13.47;12.30;;;11.40;99.90;;;;;;5048176;28;20463;-68
2022/08/29 05:56:23;;;;;;;14.03;12.93;;;11.50;99.90;;;;;;5047760;28;20466;-68
2022/08/29 05:58:49;;;;;;;14.30;12.50;;;11.60;99.90;;;;;;5048304;28;20463;-69
2022/08/29 06:01:26;;;;;;;13.73;12.53;;;11.70;99.90;;;;;;5044674;28;20478;-69
2022/08/29 06:03:53;;;;;;;14.77;13.57;;;11.90;99.90;;;;;;5048555;28;21011;-68
2022/08/29 06:06:22;;;;;;;13.70;12.60;;;12.10;99.90;;;;;;5047351;28;20928;-68
2022/08/29 06:08:49;;;;;;;14.63;13.37;;;12.20;99.90;;;;;;5046633;28;20462;-69
2022/08/29 06:11:17;;;;;;;14.43;13.10;;;12.40;99.90;;;;;;5047939;28;20485;-70
2022/08/29 06:13:44;;;;;;;14.40;13.03;;;12.40;99.90;;;;;;5048851;28;20467;-68
2022/08/29 06:16:13;;;;;;;14.57;13.27;;;12.50;99.90;;;;;;5046304;28;21408;-67
2022/08/29 06:18:41;;;;;;;15.77;13.53;;;12.70;99.90;;;;;;5046380;28;20465;-68
2022/08/29 06:21:10;;;;;;;14.60;13.10;;;12.70;99.90;;;;;;5047237;28;20954;-68
2022/08/29 06:23:37;;;;;;;13.83;12.70;;;12.90;99.90;;;;;;5044894;28;20954;-68
2022/08/29 06:26:05;;;;;;;15.23;12.40;;;13.20;99.90;;;;;;5048279;28;20482;-68
2022/08/29 06:28:33;;;;;;;26.97;15.77;;;13.30;99.90;;;;;;5050515;28;21291;-68
2022/08/29 06:31:07;;;;;;;24.00;13.00;;;13.40;99.90;;;;;;5066399;28;20485;-68
2022/08/29 06:33:35;;;;;;;25.27;14.17;;;13.60;99.90;;;;;;5084608;28;20455;-68
2022/08/29 06:36:18;;;;;;;35.03;15.20;;;13.80;99.90;;;;;;5079328;28;20473;-68
2022/08/29 06:38:45;;;;;;;20.17;14.50;;;14.00;99.90;;;;;;5075502;28;20808;-68
2022/08/29 06:41:15;;;;;;;15.60;14.13;;;14.20;99.90;;;;;;5052406;28;20465;-68
2022/08/29 06:43:42;;;;;;;18.40;14.70;;;14.40;99.90;;;;;;5052360;28;20458;-68
2022/08/29 06:46:18;;;;;;;19.43;15.80;;;14.50;99.90;;;;;;5052087;28;20802;-68
2022/08/29 06:48:45;;;;;;;17.50;14.87;;;14.70;99.90;;;;;;5052117;28;20462;-68
2022/08/29 06:51:12;;;;;;;16.10;14.40;;;14.90;99.90;;;;;;5052226;28;20505;-68
2022/08/29 06:53:40;;;;;;;18.00;15.07;;;15.10;99.90;;;;;;5052209;28;21002;-69
2022/08/29 06:56:08;;;;;;;16.90;15.00;;;15.20;99.90;;;;;;5052151;28;20469;-68
2022/08/29 06:58:35;;;;;;;18.40;16.60;;;15.40;99.90;;;;;;5051002;28;21019;-68
2022/08/29 07:01:06;;;;;;;16.97;15.50;;;15.40;99.90;;;;;;5050107;28;20529;-68
2022/08/29 07:03:33;;;;;;;17.20;15.90;;;15.50;99.90;;;;;;5050314;28;20577;-67
2022/08/29 07:06:00;;;;;;;16.73;15.33;;;15.60;99.90;;;;;;5051705;28;20466;-68
2022/08/29 07:08:27;;;;;;;16.97;15.43;;;15.80;99.90;;;;;;5051222;28;20470;-67
2022/08/29 07:10:55;;;;;;;17.80;16.10;;;16.00;99.90;;;;;;5051624;28;21156;-69
2022/08/29 07:13:22;;;;;;;16.30;15.10;;;16.30;99.90;;;;;;5050776;28;20461;-67
2022/08/29 07:15:49;;;;;;;16.17;14.70;;;16.50;99.90;;;;;;5051520;28;21083;-66
2022/08/29 07:18:17;;;;;;;16.27;15.10;;;16.70;99.90;;;;;;5051219;28;20459;-67
2022/08/29 07:20:44;;;;;;;16.57;15.30;;;16.70;99.90;;;;;;5060964;28;20471;-67
2022/08/29 07:23:11;;;;;;;17.47;15.87;;;17.00;99.90;;;;;;5079014;28;21450;-66
2022/08/29 07:25:38;;;;;;;17.00;15.67;;;17.30;99.90;;;;;;5076338;28;22143;-66
2022/08/29 07:28:07;;;;;;;17.47;16.23;;;17.60;99.90;;;;;;5070470;28;20466;-67
2022/08/29 07:30:34;;;;;;;17.30;15.90;;;17.80;99.90;;;;;;5053048;28;20733;-66
2022/08/29 07:33:01;;;;;;;16.43;15.00;;;18.10;99.90;;;;;;5048644;28;20549;-67
2022/08/29 07:35:28;;;;;;;17.40;15.63;;;18.40;99.90;;;;;;5050457;28;20451;-66
2022/08/29 07:37:56;;;;;;;20.03;16.03;;;18.50;99.90;;;;;;5049239;28;20518;-67
2022/08/29 07:40:23;;;;;;;17.40;16.00;;;18.70;99.90;;;;;;5050409;28;20467;-67
2022/08/29 07:42:50;;;;;;;17.80;16.07;;;19.00;99.90;;;;;;5049744;28;20919;-67
2022/08/29 07:45:18;;;;;;;17.80;16.40;;;19.30;99.90;;;;;;5049996;28;20977;-66
2022/08/29 07:47:45;;;;;;;17.97;16.20;;;19.50;99.90;;;;;;5051208;28;20941;-68
2022/08/29 07:50:14;;;;;;;18.33;16.63;;;19.60;99.90;;;;;;5051314;28;20954;-68
2022/08/29 07:52:41;;;;;;;17.00;15.80;;;19.50;99.90;;;;;;5049892;28;20498;-68
2022/08/29 07:55:09;;;;;;;18.23;16.50;;;19.80;99.90;;;;;;5049907;28;20462;-67
2022/08/29 07:57:35;;;;;;;17.87;16.50;;;19.70;99.90;;;;;;5049965;28;20576;-67
2022/08/29 08:00:03;;;;;;;17.30;15.80;;;19.80;99.90;;;;;;5079853;28;20469;-67
2022/08/29 08:02:32;;;;;;;16.87;15.77;;;20.00;99.90;;;;;;5075851;28;20529;-68
2022/08/29 08:05:00;;;;;;;17.63;16.00;;;20.40;99.90;;;;;;5081475;28;20469;-67
2022/08/29 08:07:28;;;;;;;17.40;16.17;;;20.60;99.90;;;;;;5058951;28;20454;-68
2022/08/29 08:09:55;;;;;;;16.37;15.33;;;20.70;99.90;;;;;;5050676;28;20463;-68
2022/08/29 08:12:24;;;;;;;17.03;15.87;;;20.80;99.90;;;;;;5051074;28;20638;-68
2022/08/29 08:14:51;;;;;;;16.83;15.43;;;20.70;99.90;;;;;;5049135;28;20463;-68
2022/08/29 08:17:18;;;;;;;17.60;16.27;;;20.40;99.90;;;;;;5047703;28;21306;-67
2022/08/29 08:19:46;;;;;;;17.03;15.90;;;20.30;99.90;;;;;;5050464;28;20485;-68
2022/08/29 08:22:13;;;;;;;16.90;15.70;;;20.20;99.90;;;;;;5050672;28;20808;-68
2022/08/29 08:24:40;;;;;;;17.53;16.37;;;20.00;99.90;;;;;;5049866;28;20463;-68
2022/08/29 08:27:07;;;;;;;17.77;16.20;;;19.80;99.90;;;;;;5052229;28;21123;-67
2022/08/29 08:29:34;;;;;;;17.97;16.33;;;20.30;99.90;;;;;;5051101;28;20471;-67
2022/08/29 08:32:00;;;;;;;16.03;15.00;;;21.00;99.90;;;;;;5050494;28;20556;-68
2022/08/29 08:34:28;;;;;;;18.60;16.73;;;21.30;99.90;;;;;;5050679;28;22512;-68
2022/08/29 08:36:56;;;;;;;17.60;16.13;;;21.50;99.90;;;;;;5047950;28;20465;-67
2022/08/29 08:39:23;;;;;;;19.10;17.47;;;21.40;99.90;;;;;;5048922;28;20454;-68
2022/08/29 08:41:57;;;;;;;17.57;16.17;;;21.00;99.90;;;;;;5050857;28;20451;-67
2022/08/29 08:44:52;;;;;;;16.70;15.50;;;21.30;99.90;;;;;;5050063;28;20455;-69
2022/08/29 08:47:25;;;;;;;17.43;16.00;;;21.20;99.90;;;;;;5049909;28;20470;-67
2022/08/29 08:49:57;;;;;;;16.80;15.60;;;21.20;99.90;;;;;;5051366;28;20561;-69
2022/08/29 08:52:33;;;;;;;19.37;16.07;;;20.90;99.90;;;;;;5049460;28;20522;-67
2022/08/29 08:55:04;;;;;;;17.27;16.10;;;20.90;99.90;;;;;;5050753;28;20563;-68
2022/08/29 08:57:38;;;;;;;17.73;16.23;;;21.20;99.90;;;;;;5050536;28;20498;-67
2022/08/29 09:00:09;;;;;;;16.67;15.67;;;20.90;99.90;;;;;;5076420;28;20467;-67
2022/08/29 09:02:47;;;;;;;16.90;15.70;;;20.90;99.90;;;;;;5064344;28;20474;-67
2022/08/29 09:05:33;;;;;;;17.80;16.47;;;21.40;99.90;;;;;;5050756;28;20473;-67
2022/08/29 09:08:10;;;;;;;16.77;15.60;;;21.70;99.90;;;;;;5049618;28;20554;-67
2022/08/29 09:10:58;;;;;;;16.60;15.60;;;22.80;99.90;;;;;;5049956;28;20881;-68
2022/08/29 09:13:37;;;;;;;16.70;15.70;;;24.20;99.90;;;;;;5051508;28;20489;-67
2022/08/29 09:16:09;;;;;;;18.17;16.77;;;24.90;99.90;;;;;;5050326;28;20478;-69
2022/08/29 09:18:38;;;;;;;17.10;15.77;;;25.10;99.70;;;;;;5049155;28;20520;-68
2022/08/29 09:21:13;;;;;;;16.63;15.47;;;25.50;97.40;;;;;;5049932;28;20463;-68
2022/08/29 09:23:44;;;;;;;17.50;16.03;;;25.30;96.90;;;;;;5049423;28;20635;-68
2022/08/29 09:26:11;;;;;;;17.10;15.87;;;25.70;95.30;;;;;;5049682;28;20458;-68
2022/08/29 09:28:39;;;;;;;17.13;15.60;;;25.30;95.00;;;;;;5049135;28;21023;-68
2022/08/29 09:31:24;;;;;;;17.40;16.30;;;25.60;94.50;;;;;;5049696;28;20490;-68
2022/08/29 09:33:53;;;;;;;18.07;16.63;;;26.00;93.40;;;;;;5049897;28;21020;-68
2022/08/29 09:36:43;;;;;;;17.63;16.50;;;26.20;92.20;;;;;;5050010;28;20463;-67
2022/08/29 09:39:17;;;;;;;17.77;16.17;;;26.00;92.40;;;;;;5050594;28;20572;-67
2022/08/29 09:41:46;;;;;;;17.07;15.97;;;25.90;91.70;;;;;;5049431;28;20462;-68
2022/08/29 09:44:18;;;;;;;16.00;15.10;;;25.60;91.60;;;;;;5047746;28;20519;-68
2022/08/29 09:46:45;;;;;;;17.40;15.80;;;25.30;93.00;;;;;;5048558;28;20909;-68
2022/08/29 09:49:15;;;;;;;17.20;16.00;;;25.80;91.20;;;;;;5048934;28;20566;-67
2022/08/29 09:51:44;;;;;;;17.03;16.10;;;26.20;91.20;;;;;;5047401;28;20494;-68
2022/08/29 09:54:17;;;;;;;17.23;15.90;;;26.70;89.70;;;;;;5048324;28;20628;-67
2022/08/29 09:56:52;;;;;;;17.00;15.90;;;26.30;90.40;;;;;;5048194;28;21562;-68
2022/08/29 09:59:25;;;;;;;18.23;16.50;;;26.10;89.30;;;;;;5048314;28;20466;-68
2022/08/29 10:02:24;;;;;;;17.10;15.60;;;26.40;89.40;;;;;;5048691;28;20463;-68
2022/08/29 10:04:54;;;;;;;16.50;15.50;;;25.90;88.40;;;;;;5050164;28;20471;-68
2022/08/29 10:07:24;;;;;;;17.20;15.83;;;25.50;90.50;;;;;;5047936;28;20469;-68
2022/08/29 10:10:02;;;;;;;18.10;16.50;;;25.40;88.90;;;;;;5048501;28;20992;-69
2022/08/29 10:12:47;;;;;;;17.63;15.80;;;25.30;89.90;;;;;;5048186;28;20493;-68
2022/08/29 10:15:21;;;;;;;17.17;15.63;;;25.00;89.90;;;;;;5047858;28;20515;-67
2022/08/29 10:20:51;;;;;;;16.57;15.27;;;25.50;87.20;;;;;;5048297;28;20503;-68
2022/08/29 10:23:25;;;;;;;18.43;16.97;;;26.40;86.50;;;;;;5049770;28;20836;-68
2022/08/29 10:25:54;;;;;;;16.60;15.67;;;27.00;83.20;;;;;;5049046;28;20462;-68
2022/08/29 10:28:32;;;;;;;16.40;15.50;;;27.30;80.10;;;;;;5049147;28;21123;-68
2022/08/29 10:31:05;;;;;;;15.97;15.00;;;27.90;79.10;;;;;;5048604;28;20519;-68
2022/08/29 10:33:56;;;;;;;16.77;15.87;;;27.80;76.00;;;;;;5049438;28;20573;-69
2022/08/29 10:36:31;;;;;;;17.80;16.07;;;26.70;76.90;;;;;;5048940;28;20507;-68
2022/08/29 10:39:05;;;;;;;17.73;16.17;;;25.70;79.30;;;;;;5047709;28;20463;-68
2022/08/29 10:41:40;;;;;;;17.23;16.03;;;25.90;79.80;;;;;;5047857;28;20471;-68
2022/08/29 10:44:19;;;;;;;17.53;16.33;;;26.00;78.30;;;;;;5048817;28;20462;-68
2022/08/29 10:47:05;;;;;;;16.63;15.63;;;25.50;79.50;;;;;;5047885;28;20454;-68
2022/08/29 10:49:51;;;;;;;16.03;15.03;;;25.60;80.30;;;;;;5047849;28;21351;-68
2022/08/29 10:52:25;;;;;;;16.57;15.23;;;26.10;79.40;;;;;;5047439;28;20494;-68
2022/08/29 10:54:59;;;;;;;15.77;14.80;;;26.80;75.40;;;;;;5048058;28;20840;-69
2022/08/29 10:57:41;;;;;;;17.50;16.27;;;27.00;76.50;;;;;;5048526;28;21110;-68
2022/08/29 11:00:12;;;;;;;16.77;15.67;;;27.20;75.70;;;;;;5048488;28;20957;-68
2022/08/29 11:02:46;;;;;;;17.30;16.13;;;27.50;75.90;;;;;;5046148;28;20471;-68
2022/08/29 11:05:18;;;;;;;17.40;16.30;;;27.80;73.80;;;;;;5046798;28;21391;-68
2022/08/29 11:07:51;;;;;;;18.33;17.00;;;27.20;73.20;;;;;;5046526;28;20466;-68
2022/08/29 11:10:22;;;;;;;18.63;17.10;;;26.80;73.30;;;;;;5041685;28;20466;-68
2022/08/29 11:12:55;;;;;;;17.97;16.77;;;26.80;74.60;;;;;;5056097;28;21033;-69
2022/08/29 11:15:26;;;;;;;19.07;17.50;;;26.90;74.60;;;;;;5048558;28;20486;-67
2022/08/29 11:18:01;;;;;;;17.30;15.90;;;26.20;73.00;;;;;;5051209;28;20463;-68
2022/08/29 11:20:31;;;;;;;17.23;16.10;;;26.30;74.30;;;;;;5051867;28;20467;-68
2022/08/29 11:23:05;;;;;;;17.43;16.40;;;26.70;73.80;;;;;;5051685;28;20523;-68
2022/08/29 11:25:33;;;;;;;17.17;16.10;;;27.30;71.00;;;;;;5049693;28;21091;-69
2022/08/29 11:28:13;;;;;;;18.57;17.37;;;28.10;70.20;;;;;;5051040;28;20519;-68
2022/08/29 11:30:48;;;;;;;17.60;16.60;;;28.60;68.50;;;;;;5051398;28;20463;-69
2022/08/29 11:33:28;;;;;;;17.80;16.80;;;28.20;67.00;;;;;;5049410;28;20498;-68
2022/08/29 11:36:08;;;;;;;17.53;16.13;;;27.30;68.00;;;;;;5051462;28;20458;-68
2022/08/29 11:38:52;;;;;;;18.10;16.80;;;27.00;69.70;;;;;;5057909;28;20817;-68
2022/08/29 11:41:38;;;;;;;18.53;16.83;;;26.90;71.10;;;;;;5052407;28;20484;-68
2022/08/29 11:44:17;;;;;;;16.57;15.33;;;26.70;69.50;;;;;;5062877;28;20486;-68
2022/08/29 11:46:46;;;;;;;16.87;15.80;;;26.30;70.00;;;;;;5049476;28;20466;-69
2022/08/29 11:49:27;;;;;;;17.33;15.77;;;26.90;69.60;;;;;;5050917;28;20480;-69
2022/08/29 11:51:56;;;;;;;17.60;16.50;;;27.70;67.60;;;;;;5050404;28;21095;-68
2022/08/29 11:55:15;;;;;;;18.47;16.90;;;28.30;66.20;;;;;;5050481;28;23671;-67
2022/08/29 11:57:47;;;;;;;19.27;17.50;;;29.40;63.20;;;;;;5050779;28;20540;-68
2022/08/29 12:00:38;;;;;;;18.07;16.60;;;29.90;61.50;;;;;;5049156;28;21018;-69
2022/08/29 12:03:55;;;;;;;17.27;15.87;;;30.00;60.10;;;;;;5049937;28;20467;-69
2022/08/29 12:06:25;;;;;;;17.57;16.13;;;30.20;59.10;;;;;;5051619;28;20463;-70
2022/08/29 12:08:57;;;;;;;17.00;15.50;;;31.50;56.30;;;;;;5050477;28;20481;-69
2022/08/29 12:12:17;;;;;;;16.70;15.80;;;32.50;53.10;;;;;;5050610;28;20478;-68
2022/08/29 12:14:46;;;;;;;16.80;15.70;;;32.30;53.20;;;;;;5043283;28;20776;-69
2022/08/29 12:17:51;;;;;;;17.00;15.97;;;32.40;51.70;;;;;;5047942;28;20486;-69
2022/08/29 12:20:41;;;;;;;17.07;15.73;;;31.90;51.00;;;;;;5031763;28;20462;-70
2022/08/29 12:23:20;;;;;;;17.70;16.40;;;31.70;50.80;;;;;;5051711;28;20705;-69
2022/08/29 12:25:50;;;;;;;17.37;16.23;;;30.10;52.20;;;;;;5049832;28;20542;-68
2022/08/29 12:28:39;;;;;;;17.97;16.77;;;28.30;54.40;;;;;;5047124;28;20466;-68
2022/08/29 12:31:11;;;;;;;17.47;16.10;;;28.00;56.50;;;;;;5050039;28;20540;-69
2022/08/29 12:33:48;;;;;;;16.77;15.77;;;28.30;55.40;;;;;;5050979;28;20893;-70
2022/08/29 12:36:29;;;;;;;16.80;15.60;;;29.10;55.10;;;;;;5051700;28;20473;-68
2022/08/29 12:39:10;;;;;;;17.80;16.10;;;29.90;53.40;;;;;;5050006;28;20545;-68
2022/08/29 12:42:03;;;;;;;16.57;15.40;;;30.60;52.90;;;;;;5049940;28;20493;-69
2022/08/29 12:44:36;;;;;;;16.60;15.17;;;30.60;52.50;;;;;;5048657;28;20459;-69
2022/08/29 12:47:05;;;;;;;16.50;15.40;;;31.40;51.20;;;;;;5048832;28;21070;-68
2022/08/29 12:49:40;;;;;;;16.90;15.80;;;32.00;50.30;;;;;;5076294;28;20983;-68
2022/08/29 12:52:24;;;;;;;16.17;15.07;;;31.80;49.10;;;;;;5067545;28;22546;-69